Normandie — FNNO — position and weather

sailwx.info

Track history (hours):
 
Tides and Currents Weather Stations Pressure Air Temp Water Temp Dewpoint Dewpoint Depression Visibility Wind Speed Wind Dir Waves Ship Positions

Normandie

Operator: Brittany Ferries

Last reported at 2019-Mar-26 00:00 UTC. Time now 2019-Mar-26 00:30 UTC.
Position N 50°43' W 001°03'.

Length 161 m; beam 27 m.

Type: Ship. MMSI: 227273000.

Date/timePositionNaut miles runAvg speedWind from/ knotsBaromVisibWave heightAir tempDewpointWater temp
2019-Mar-26 00:00N 50°43' W 001°03'611.9
2019-Mar-25 23:31N 50°49' W 001°07'0 0.9
2019-Mar-25 23:00N 50°49' W 001°06'0 0.0
2019-Mar-25 22:30N 50°49' W 001°06'0 0.0
2019-Mar-25 22:00N 50°49' W 001°06'0 0.0
2019-Mar-25 21:30N 50°49' W 001°06'1 1.6
2019-Mar-25 21:00N 50°48' W 001°07'611.5
2019-Mar-25 20:30N 50°44' W 001°02'917.6
2019-Mar-25 20:00N 50°36' W 000°56'1018.9
2019-Mar-25 19:30N 50°27' W 000°49'3217.6
2019-Mar-25 17:41N 49°56' W 000°34'317.9
2019-Mar-25 17:29N 49°53' W 000°33'917.9
2019-Mar-25 17:00N 49°45' W 000°29'918.7
2019-Mar-25 16:30N 49°36' W 000°23'1019.4
2019-Mar-25 16:00N 49°27' W 000°18'918.3
2019-Mar-25 15:30N 49°18' W 000°15'1 1.9
2019-Mar-25 15:00N 49°17' W 000°15'0 0.0
2019-Mar-25 14:30N 49°17' W 000°15'0 0.0
2019-Mar-25 14:00N 49°17' W 000°15'3 7.0
2019-Mar-25 13:30N 49°21' W 000°14'1019.2
2019-Mar-25 13:00N 49°30' W 000°19'1019.7
2019-Mar-25 12:30N 49°39' W 000°25'1019.7
2019-Mar-25 12:00N 49°48' W 000°31'5020.0
2019-Mar-25 09:32N 50°34' W 000°58'020.1
2019-Mar-25 09:30N 50°35' W 000°59'917.3
2019-Mar-25 09:00N 50°43' W 001°01'612.9
2019-Mar-25 08:30N 50°48' W 001°07'1 1.5
2019-Mar-25 08:00N 50°49' W 001°06'0 0.0
2019-Mar-25 07:30N 50°49' W 001°06'0 0.0
2019-Mar-25 07:00N 50°49' W 001°06'0 0.2
2019-Mar-25 06:31N 50°49' W 001°06'4 8.1
2019-Mar-25 06:01N 50°45' W 001°05'815.4
2019-Mar-25 05:30N 50°38' W 000°59'4713.5
2019-Mar-25 02:01N 49°54' W 000°32'010.5
2019-Mar-25 02:00N 49°54' W 000°32'5 9.7
2019-Mar-25 01:30N 49°50' W 000°29'5 9.8
2019-Mar-25 01:00N 49°45' W 000°27'5 9.9
2019-Mar-25 00:30N 49°40' W 000°24'5 9.4
2019-Mar-25 00:00N 49°36' W 000°22'5 9.9
2019-Mar-24 23:30N 49°31' W 000°20'5 9.9
2019-Mar-24 23:00N 49°26' W 000°18'5 9.2
2019-Mar-24 22:30N 49°22' W 000°15'5 9.3
2019-Mar-24 22:00N 49°17' W 000°15'0 0.0
2019-Mar-24 21:30N 49°17' W 000°15'0 0.0
2019-Mar-24 21:00N 49°17' W 000°15'0 0.0
2019-Mar-24 20:30N 49°17' W 000°15'5 9.7
2019-Mar-24 20:00N 49°22' W 000°15'1019.8
2019-Mar-24 19:30N 49°32' W 000°19'1019.7
2019-Mar-24 19:00N 49°41' W 000°24'1019.3
2019-Mar-24 18:30N 49°50' W 000°29'3819.3
2019-Mar-24 16:31N 50°26' W 000°49'119.1
2019-Mar-24 16:28N 50°27' W 000°50'918.9
2019-Mar-24 16:00N 50°35' W 000°56'918.4
2019-Mar-24 15:30N 50°43' W 001°02'612.4
2019-Mar-24 15:01N 50°49' W 001°06'0 0.5
2019-Mar-24 14:30N 50°49' W 001°06'0 0.0
2019-Mar-24 14:00N 50°49' W 001°06'0 0.1
2019-Mar-24 13:30N 50°49' W 001°06'4 7.0
2019-Mar-24 13:00N 50°45' W 001°05'918.6
2019-Mar-24 12:30N 50°37' W 000°58'3819.4
2019-Mar-24 10:34N 50°01' W 000°42'618.4
2019-Mar-24 10:15N 49°56' W 000°39'618.4
2019-Mar-24 09:55N 49°50' W 000°36'718.2
2019-Mar-24 09:30N 49°43' W 000°32'917.9
2019-Mar-24 09:00N 49°35' W 000°26'918.6
2019-Mar-24 08:30N 49°26' W 000°19'816.6
2019-Mar-24 08:00N 49°19' W 000°15'1 2.4
2019-Mar-24 07:30N 49°17' W 000°15'0 0.0
2019-Mar-24 07:00N 49°17' W 000°15'0 0.0
2019-Mar-24 06:30N 49°17' W 000°15'0 0.0
2019-Mar-24 06:00N 49°17' W 000°15'0 0.3
2019-Mar-24 05:30N 49°17' W 000°15'612.4
2019-Mar-24 05:01N 49°23' W 000°15'814.7
2019-Mar-24 04:28N 49°31' W 000°20'714.8
2019-Mar-24 04:01N 49°37' W 000°24'714.9
2019-Mar-24 03:31N 49°44' W 000°28'5215.0
2019-Mar-24 00:01N 50°33' W 000°55'115.7
2019-Mar-23 23:59N 50°34' W 000°56'715.1
2019-Mar-23 23:30N 50°41' W 000°60'714.1
2019-Mar-23 23:00N 50°47' W 001°06'2 4.3
2019-Mar-23 22:30N 50°49' W 001°06'0 0.0
2019-Mar-23 22:00N 50°49' W 001°06'0 0.0
2019-Mar-23 21:30N 50°49' W 001°06'0 0.9
2019-Mar-23 21:00N 50°49' W 001°07'611.1
2019-Mar-23 20:30N 50°44' W 001°02'815.9
2019-Mar-23 20:00N 50°36' W 000°58'916.9
2019-Mar-23 19:30N 50°28' W 000°53'3217.7
2019-Mar-23 17:39N 49°57' W 000°39'318.6
2019-Mar-23 17:30N 49°54' W 000°37'918.6
2019-Mar-23 17:00N 49°46' W 000°31'1019.9
2019-Mar-23 16:30N 49°37' W 000°25'1019.7
2019-Mar-23 16:00N 49°28' W 000°19'918.7
2019-Mar-23 15:30N 49°19' W 000°15'2 3.2
2019-Mar-23 15:00N 49°17' W 000°15'0 0.0
2019-Mar-23 14:30N 49°17' W 000°15'0 0.0
2019-Mar-23 14:00N 49°17' W 000°15'3 6.7
2019-Mar-23 13:31N 49°21' W 000°14'918.4
2019-Mar-23 13:01N 49°30' W 000°18'1019.0
2019-Mar-23 12:31N 49°39' W 000°23'1019.2
2019-Mar-23 12:00N 49°48' W 000°28'5019.8
2019-Mar-23 09:30N 50°34' W 000°57'918.5
2019-Mar-23 09:00N 50°42' W 001°02'714.0
2019-Mar-23 08:31N 50°48' W 001°07'1 1.4
2019-Mar-23 08:00N 50°49' W 001°06'0 0.0
2019-Mar-23 07:30N 50°49' W 001°06'0 0.0
2019-Mar-23 07:00N 50°49' W 001°06'1 1.2
2019-Mar-23 06:31N 50°49' W 001°07'612.2
2019-Mar-23 06:00N 50°43' W 001°01'714.3
2019-Mar-23 05:30N 50°37' W 000°57'3611.9
2019-Mar-23 02:31N 50°03' W 000°38'011.6
2019-Mar-23 02:30N 50°03' W 000°38'611.8
2019-Mar-23 02:00N 49°57' W 000°36'611.9
2019-Mar-23 01:30N 49°52' W 000°33'611.8
2019-Mar-23 01:00N 49°46' W 000°30'611.3
2019-Mar-23 00:30N 49°41' W 000°26'510.9
2019-Mar-23 00:00N 49°36' W 000°23'510.7
2019-Mar-22 23:30N 49°31' W 000°20'510.6
2019-Mar-22 23:00N 49°26' W 000°18'510.5
2019-Mar-22 22:30N 49°21' W 000°15'4 7.5
2019-Mar-22 22:00N 49°17' W 000°15'0 0.0
2019-Mar-22 21:30N 49°17' W 000°15'0 0.0
2019-Mar-22 21:00N 49°17' W 000°15'0 0.0
2019-Mar-22 20:30N 49°17' W 000°15'3 5.3
2019-Mar-22 20:00N 49°20' W 000°14'1019.7
2019-Mar-22 19:30N 49°30' W 000°17'1020.4
2019-Mar-22 19:00N 49°39' W 000°22'1020.4
2019-Mar-22 18:30N 49°49' W 000°28'4619.4
2019-Mar-22 16:09N 50°31' W 000°55'319.3
2019-Mar-22 15:59N 50°34' W 000°58'919.2
2019-Mar-22 15:30N 50°43' W 001°02'713.1
2019-Mar-22 15:01N 50°49' W 001°06'0 0.6
2019-Mar-22 14:30N 50°49' W 001°06'0 0.0
2019-Mar-22 14:00N 50°49' W 001°06'0 0.0
2019-Mar-22 13:30N 50°49' W 001°06'1 2.6
2019-Mar-22 13:00N 50°48' W 001°07'612.6
2019-Mar-22 12:30N 50°42' W 001°01'5519.2
2019-Mar-22 09:39N 49°51' W 000°33'319.1
2019-Mar-22 09:30N 49°48' W 000°32'918.9
2019-Mar-22 09:00N 49°39' W 000°27'918.6
2019-Mar-22 08:30N 49°30' W 000°22'917.6
2019-Mar-22 08:00N 49°23' W 000°15'510.4
2019-Mar-22 07:30N 49°17' W 000°15'0 0.0
2019-Mar-22 07:00N 49°17' W 000°15'0 0.0
2019-Mar-22 06:30N 49°17' W 000°15'0 0.0
2019-Mar-22 06:00N 49°17' W 000°15'0 0.2
2019-Mar-22 05:31N 49°17' W 000°15'611.8
2019-Mar-22 05:00N 49°23' W 000°14'918.1
2019-Mar-22 04:30N 49°32' W 000°17'918.0
2019-Mar-22 04:00N 49°40' W 000°24'917.1
2019-Mar-22 03:30N 49°48' W 000°29'4915.4
2019-Mar-22 00:19N 50°34' W 000°56'515.5
2019-Mar-22 00:00N 50°38' W 000°59'714.1
2019-Mar-21 23:30N 50°44' W 001°04'4 8.7
2019-Mar-21 23:01N 50°49' W 001°06'0 0.0
2019-Mar-21 22:31N 50°49' W 001°06'0 0.0
2019-Mar-21 22:01N 50°49' W 001°06'0 0.0
2019-Mar-21 21:31N 50°49' W 001°06'2 4.0
2019-Mar-21 21:01N 50°47' W 001°06'816.1
2019-Mar-21 20:30N 50°40' W 000°60'918.9
2019-Mar-21 20:00N 50°31' W 000°55'3418.7
2019-Mar-21 18:12N 49°58' W 000°40'418.9
2019-Mar-21 18:00N 49°55' W 000°38'1019.2
2019-Mar-21 17:30N 49°46' W 000°31'1019.6
2019-Mar-21 17:00N 49°37' W 000°25'1019.7
2019-Mar-21 16:30N 49°28' W 000°19'918.3
2019-Mar-21 16:00N 49°20' W 000°15'2 4.6
2019-Mar-21 15:30N 49°17' W 000°15'0 0.0
2019-Mar-21 15:01N 49°17' W 000°15'0 0.0
2019-Mar-21 14:30N 49°17' W 000°15'0 0.0
2019-Mar-21 14:00N 49°17' W 000°15'4 7.8
2019-Mar-21 13:31N 49°21' W 000°14'918.4
2019-Mar-21 13:00N 49°30' W 000°19'7119.4
2019-Mar-21 09:22N 50°36' W 000°58'617.7
2019-Mar-21 09:01N 50°42' W 001°01'714.4
2019-Mar-21 08:30N 50°48' W 001°07'1 1.7
2019-Mar-21 08:00N 50°49' W 001°06'0 0.0
2019-Mar-21 07:30N 50°49' W 001°06'0 0.0
2019-Mar-21 07:00N 50°49' W 001°06'1 1.2
2019-Mar-21 06:30N 50°49' W 001°07'612.0
2019-Mar-21 06:00N 50°43' W 001°02'714.8
2019-Mar-21 05:30N 50°37' W 000°57'612.0
2019-Mar-21 05:00N 50°31' W 000°53'710.9
2019-Mar-21 04:20N 50°24' W 000°49'3110.9
2019-Mar-21 01:26N 49°54' W 000°33'511.4
2019-Mar-21 00:57N 49°49' W 000°32'511.9
2019-Mar-21 00:30N 49°44' W 000°28'611.9
2019-Mar-21 00:00N 49°39' W 000°25'611.5
2019-Mar-20 23:30N 49°33' W 000°23'611.5
2019-Mar-20 23:00N 49°28' W 000°19'611.2
2019-Mar-20 22:30N 49°23' W 000°15'510.9
2019-Mar-20 22:00N 49°17' W 000°15'0 0.1
2019-Mar-20 21:30N 49°17' W 000°15'0 0.0
2019-Mar-20 21:00N 49°17' W 000°15'0 0.0
2019-Mar-20 20:30N 49°17' W 000°15'0 0.0
2019-Mar-20 20:00N 49°17' W 000°15'0 0.0
2019-Mar-20 19:30N 49°17' W 000°15'0 0.0
2019-Mar-20 19:00N 49°17' W 000°15'0 0.0
2019-Mar-20 18:30N 49°17' W 000°15'0 0.0
2019-Mar-20 18:00N 49°17' W 000°15'0 0.0
2019-Mar-20 17:30N 49°17' W 000°15'0 0.0
2019-Mar-20 16:57N 49°17' W 000°15'0 0.0
2019-Mar-20 16:27N 49°17' W 000°15'0 0.0
2019-Mar-20 16:00N 49°17' W 000°15'0 0.0
2019-Mar-20 15:30N 49°17' W 000°15'0 0.0
2019-Mar-20 15:00N 49°17' W 000°15'0 0.0
2019-Mar-20 14:30N 49°17' W 000°15'0 0.0
2019-Mar-20 14:00N 49°17' W 000°15'4 7.0
2019-Mar-20 13:31N 49°21' W 000°14'918.2
2019-Mar-20 13:01N 49°29' W 000°19'918.5
2019-Mar-20 12:31N 49°38' W 000°24'918.5
2019-Mar-20 12:01N 49°47' W 000°28'5019.1
2019-Mar-20 09:23N 50°34' W 000°56'718.8
2019-Mar-20 09:01N 50°41' W 000°60'816.1
2019-Mar-20 08:30N 50°47' W 001°07'1 2.8
2019-Mar-20 08:00N 50°49' W 001°06'0 0.0
2019-Mar-20 07:31N 50°49' W 001°06'0 0.0
2019-Mar-20 07:00N 50°49' W 001°06'1 1.1
2019-Mar-20 06:31N 50°49' W 001°07'611.6
2019-Mar-20 06:00N 50°44' W 001°02'714.8
2019-Mar-20 05:30N 50°37' W 000°58'611.6
2019-Mar-20 05:00N 50°31' W 000°55'3811.0
2019-Mar-20 01:35N 49°56' W 000°34'111.6
2019-Mar-20 01:29N 49°55' W 000°34'511.6
2019-Mar-20 01:00N 49°49' W 000°31'611.6
2019-Mar-20 00:30N 49°44' W 000°28'612.4
2019-Mar-20 00:00N 49°38' W 000°24'612.2
2019-Mar-19 23:30N 49°33' W 000°20'612.0
2019-Mar-19 23:00N 49°27' W 000°17'611.6
2019-Mar-19 22:30N 49°21' W 000°15'4 8.1
2019-Mar-19 22:01N 49°17' W 000°15'0 0.0
2019-Mar-19 21:30N 49°17' W 000°15'0 0.0
2019-Mar-19 21:01N 49°17' W 000°15'0 0.0
2019-Mar-19 20:31N 49°17' W 000°15'3 7.0
2019-Mar-19 20:00N 49°21' W 000°14'918.9
2019-Mar-19 19:30N 49°30' W 000°17'918.9
2019-Mar-19 19:00N 49°39' W 000°21'1020.0
2019-Mar-19 18:30N 49°48' W 000°29'4719.4
2019-Mar-19 16:06N 50°32' W 000°54'218.7
2019-Mar-19 16:00N 50°33' W 000°55'918.1
2019-Mar-19 15:30N 50°42' W 000°58'815.7
2019-Mar-19 15:01N 50°48' W 001°07'1 2.3
2019-Mar-19 14:30N 50°49' W 001°06'0 0.0
2019-Mar-19 14:00N 50°49' W 001°06'0 0.0
2019-Mar-19 13:30N 50°49' W 001°06'0 0.7
2019-Mar-19 13:00N 50°49' W 001°06'611.0
2019-Mar-19 12:30N 50°44' W 001°03'918.2
2019-Mar-19 12:00N 50°35' W 000°58'2719.7
2019-Mar-19 10:39N 50°10' W 000°44'919.7
2019-Mar-19 10:12N 50°02' W 000°39'419.6
2019-Mar-19 10:00N 49°58' W 000°37'1019.3
2019-Mar-19 09:30N 49°49' W 000°31'1019.1
2019-Mar-19 09:00N 49°40' W 000°25'1019.1
2019-Mar-19 08:30N 49°31' W 000°21'919.0
2019-Mar-19 08:00N 49°23' W 000°15'510.5
2019-Mar-19 07:31N 49°17' W 000°15'0 0.0
2019-Mar-19 07:01N 49°17' W 000°15'0 0.0
2019-Mar-19 06:31N 49°17' W 000°15'0 0.0
2019-Mar-19 06:01N 49°17' W 000°15'0 0.2
2019-Mar-19 05:31N 49°17' W 000°15'714.8
2019-Mar-19 05:00N 49°25' W 000°15'918.0
2019-Mar-19 04:30N 49°33' W 000°17'917.9
2019-Mar-19 04:00N 49°42' W 000°21'816.8
2019-Mar-19 03:30N 49°49' W 000°29'4816.7
2019-Mar-19 00:39N 50°34' W 000°55'317.1
2019-Mar-19 00:28N 50°36' W 000°57'817.2
2019-Mar-19 00:00N 50°43' W 001°02'611.5
2019-Mar-18 23:31N 50°48' W 001°07'1 1.5
2019-Mar-18 23:00N 50°49' W 001°06'0 0.0
2019-Mar-18 22:30N 50°49' W 001°06'0 0.0
2019-Mar-18 22:00N 50°49' W 001°06'1 2.4
2019-Mar-18 21:30N 50°48' W 001°07'713.0
2019-Mar-18 21:00N 50°42' W 001°01'1019.2
2019-Mar-18 20:30N 50°33' W 000°56'4318.8
2019-Mar-18 18:11N 49°53' W 000°30'318.6
2019-Mar-18 18:01N 49°50' W 000°28'918.5
2019-Mar-18 17:31N 49°41' W 000°24'918.4
2019-Mar-18 17:01N 49°32' W 000°19'918.3
2019-Mar-18 16:30N 49°23' W 000°16'612.1
2019-Mar-18 16:00N 49°17' W 000°15'0 0.0
2019-Mar-18 15:30N 49°17' W 000°15'0 0.0
2019-Mar-18 15:00N 49°17' W 000°15'0 0.0
2019-Mar-18 14:30N 49°17' W 000°15'0 0.0
2019-Mar-18 14:00N 49°17' W 000°15'1 1.1
2019-Mar-18 13:30N 49°18' W 000°15'816.5
2019-Mar-18 13:00N 49°26' W 000°15'918.7
2019-Mar-18 12:30N 49°35' W 000°19'918.7
2019-Mar-18 12:00N 49°44' W 000°24'918.6
2019-Mar-18 11:30N 49°53' W 000°30'4518.7
2019-Mar-18 09:07N 50°34' W 000°57'319.5
2019-Mar-18 08:57N 50°37' W 000°59'818.5
2019-Mar-18 08:30N 50°44' W 001°04'5 9.2
2019-Mar-18 08:00N 50°49' W 001°06'0 0.0
2019-Mar-18 07:30N 50°49' W 001°06'0 0.0
2019-Mar-18 07:00N 50°49' W 001°06'0 0.6
2019-Mar-18 06:30N 50°49' W 001°06'510.1
2019-Mar-18 06:00N 50°44' W 001°04'917.9
2019-Mar-18 05:30N 50°36' W 000°58'6613.3
2019-Mar-18 00:33N 49°31' W 000°44'110.8
2019-Mar-18 00:30N 49°30' W 000°43'510.9
2019-Mar-18 00:00N 49°28' W 000°36'511.0
2019-Mar-17 23:30N 49°26' W 000°28'611.1
2019-Mar-17 23:00N 49°23' W 000°21'510.2
2019-Mar-17 22:30N 49°20' W 000°14'3 5.3
2019-Mar-17 22:00N 49°17' W 000°15'0 0.0
2019-Mar-17 21:30N 49°17' W 000°15'0 0.0
2019-Mar-17 21:00N 49°17' W 000°15'0 0.0
2019-Mar-17 20:30N 49°17' W 000°15'3 5.4
2019-Mar-17 20:01N 49°20' W 000°14'918.7
2019-Mar-17 19:31N 49°29' W 000°16'1019.1
2019-Mar-17 19:00N 49°39' W 000°20'1019.3
2019-Mar-17 18:30N 49°48' W 000°24'1019.6
2019-Mar-17 18:00N 49°57' W 000°28'3519.6
2019-Mar-17 16:12N 50°29' W 000°52'419.7
2019-Mar-17 15:59N 50°33' W 000°56'918.6
2019-Mar-17 15:30N 50°42' W 000°59'816.1
2019-Mar-17 15:00N 50°48' W 001°07'1 2.0
2019-Mar-17 14:30N 50°49' W 001°06'0 0.0
2019-Mar-17 14:01N 50°49' W 001°06'0 0.0
2019-Mar-17 13:30N 50°49' W 001°06'1 2.7
2019-Mar-17 13:00N 50°47' W 001°07'713.5
2019-Mar-17 12:30N 50°43' W 000°59'918.2
2019-Mar-17 12:00N 50°34' W 000°56'3919.2
2019-Mar-17 09:59N 49°58' W 000°34'919.2
2019-Mar-17 09:30N 49°49' W 000°29'1019.4
2019-Mar-17 09:01N 49°40' W 000°24'1019.5
2019-Mar-17 08:30N 49°31' W 000°19'1019.3
2019-Mar-17 08:01N 49°22' W 000°15'4 8.4
2019-Mar-17 07:30N 49°17' W 000°15'0 0.0
2019-Mar-17 07:00N 49°17' W 000°15'0 0.0
2019-Mar-17 06:30N 49°17' W 000°15'0 0.0
2019-Mar-17 06:00N 49°17' W 000°15'0 0.2
2019-Mar-17 05:30N 49°17' W 000°15'816.5
2019-Mar-17 05:00N 49°25' W 000°17'918.1
2019-Mar-17 04:31N 49°33' W 000°24'917.6
2019-Mar-17 04:00N 49°41' W 000°29'5518.3
2019-Mar-17 01:00N 50°31' W 001°08'713.9
2019-Mar-17 00:30N 50°37' W 001°05'713.7
2019-Mar-17 00:00N 50°43' W 000°60'713.5
2019-Mar-16 23:30N 50°48' W 001°07'1 1.9
2019-Mar-16 23:00N 50°49' W 001°06'0 0.0
2019-Mar-16 22:30N 50°49' W 001°06'0 0.0
2019-Mar-16 22:00N 50°49' W 001°06'2 4.2
2019-Mar-16 21:30N 50°47' W 001°06'815.5
2019-Mar-16 21:01N 50°40' W 000°59'5218.7
2019-Mar-16 18:13N 49°48' W 000°47'418.6
2019-Mar-16 18:00N 49°45' W 000°44'918.6
2019-Mar-16 17:31N 49°38' W 000°35'918.7
2019-Mar-16 17:00N 49°31' W 000°26'918.8
2019-Mar-16 16:30N 49°23' W 000°17'611.6
2019-Mar-16 16:00N 49°17' W 000°15'0 0.0
2019-Mar-16 15:30N 49°17' W 000°15'0 0.0
2019-Mar-16 15:00N 49°17' W 000°15'0 0.0
2019-Mar-16 14:30N 49°17' W 000°15'4 7.6
2019-Mar-16 14:00N 49°21' W 000°14'1019.6
2019-Mar-16 13:31N 49°30' W 000°19'1019.5
2019-Mar-16 13:01N 49°39' W 000°25'1019.2
2019-Mar-16 12:31N 49°48' W 000°30'1018.9
2019-Mar-16 12:00N 49°57' W 000°35'4118.6
2019-Mar-16 09:50N 50°32' W 001°09'515.4
2019-Mar-16 09:30N 50°36' W 001°07'815.1
2019-Mar-16 09:01N 50°44' W 001°03'511.0
2019-Mar-16 08:30N 50°49' W 001°06'0 0.8
2019-Mar-16 08:00N 50°49' W 001°06'0 0.0
2019-Mar-16 07:30N 50°49' W 001°06'0 0.0
2019-Mar-16 07:00N 50°49' W 001°06'0 0.2
2019-Mar-16 06:31N 50°49' W 001°06'4 8.2
2019-Mar-16 06:00N 50°45' W 001°05'816.9
2019-Mar-16 05:30N 50°37' W 000°59'6415.8
2019-Mar-16 01:27N 49°33' W 000°48'814.7
2019-Mar-16 00:56N 49°29' W 000°38'512.8
2019-Mar-16 00:30N 49°27' W 000°31'  
Track history (hours):
 
Tides and Currents Weather Stations Pressure Air Temp Water Temp Dewpoint Dewpoint Depression Visibility Wind Speed Wind Dir Waves Ship Positions

Normandie

Operator: Brittany Ferries

Last reported at 2019-Mar-26 00:00 UTC. Time now 2019-Mar-26 00:30 UTC.
Position N 50°43' W 001°03'.

Length 161 m; beam 27 m.

Type: Ship. MMSI: 227273000.

Date/timePositionNaut miles runAvg speedWind from/ knotsBaromVisibWave heightAir tempDewpointWater temp
2019-Mar-26 00:00N 50°43' W 001°03'611.9
2019-Mar-25 23:31N 50°49' W 001°07'0 0.9
2019-Mar-25 23:00N 50°49' W 001°06'0 0.0
2019-Mar-25 22:30N 50°49' W 001°06'0 0.0
2019-Mar-25 22:00N 50°49' W 001°06'0 0.0
2019-Mar-25 21:30N 50°49' W 001°06'1 1.6
2019-Mar-25 21:00N 50°48' W 001°07'611.5
2019-Mar-25 20:30N 50°44' W 001°02'917.6
2019-Mar-25 20:00N 50°36' W 000°56'1018.9
2019-Mar-25 19:30N 50°27' W 000°49'3217.6
2019-Mar-25 17:41N 49°56' W 000°34'317.9
2019-Mar-25 17:29N 49°53' W 000°33'917.9
2019-Mar-25 17:00N 49°45' W 000°29'918.7
2019-Mar-25 16:30N 49°36' W 000°23'1019.4
2019-Mar-25 16:00N 49°27' W 000°18'918.3
2019-Mar-25 15:30N 49°18' W 000°15'1 1.9
2019-Mar-25 15:00N 49°17' W 000°15'0 0.0
2019-Mar-25 14:30N 49°17' W 000°15'0 0.0
2019-Mar-25 14:00N 49°17' W 000°15'3 7.0
2019-Mar-25 13:30N 49°21' W 000°14'1019.2
2019-Mar-25 13:00N 49°30' W 000°19'1019.7
2019-Mar-25 12:30N 49°39' W 000°25'1019.7
2019-Mar-25 12:00N 49°48' W 000°31'5020.0
2019-Mar-25 09:32N 50°34' W 000°58'020.1
2019-Mar-25 09:30N 50°35' W 000°59'917.3
2019-Mar-25 09:00N 50°43' W 001°01'612.9
2019-Mar-25 08:30N 50°48' W 001°07'1 1.5
2019-Mar-25 08:00N 50°49' W 001°06'0 0.0
2019-Mar-25 07:30N 50°49' W 001°06'0 0.0
2019-Mar-25 07:00N 50°49' W 001°06'0 0.2
2019-Mar-25 06:31N 50°49' W 001°06'4 8.1
2019-Mar-25 06:01N 50°45' W 001°05'815.4
2019-Mar-25 05:30N 50°38' W 000°59'4713.5
2019-Mar-25 02:01N 49°54' W 000°32'010.5
2019-Mar-25 02:00N 49°54' W 000°32'5 9.7
2019-Mar-25 01:30N 49°50' W 000°29'5 9.8
2019-Mar-25 01:00N 49°45' W 000°27'5 9.9
2019-Mar-25 00:30N 49°40' W 000°24'5 9.4
2019-Mar-25 00:00N 49°36' W 000°22'5 9.9
2019-Mar-24 23:30N 49°31' W 000°20'5 9.9
2019-Mar-24 23:00N 49°26' W 000°18'5 9.2
2019-Mar-24 22:30N 49°22' W 000°15'5 9.3
2019-Mar-24 22:00N 49°17' W 000°15'0 0.0
2019-Mar-24 21:30N 49°17' W 000°15'0 0.0
2019-Mar-24 21:00N 49°17' W 000°15'0 0.0
2019-Mar-24 20:30N 49°17' W 000°15'5 9.7
2019-Mar-24 20:00N 49°22' W 000°15'1019.8
2019-Mar-24 19:30N 49°32' W 000°19'1019.7
2019-Mar-24 19:00N 49°41' W 000°24'1019.3
2019-Mar-24 18:30N 49°50' W 000°29'3819.3
2019-Mar-24 16:31N 50°26' W 000°49'119.1
2019-Mar-24 16:28N 50°27' W 000°50'918.9
2019-Mar-24 16:00N 50°35' W 000°56'918.4
2019-Mar-24 15:30N 50°43' W 001°02'612.4
2019-Mar-24 15:01N 50°49' W 001°06'0 0.5
2019-Mar-24 14:30N 50°49' W 001°06'0 0.0
2019-Mar-24 14:00N 50°49' W 001°06'0 0.1
2019-Mar-24 13:30N 50°49' W 001°06'4 7.0
2019-Mar-24 13:00N 50°45' W 001°05'918.6
2019-Mar-24 12:30N 50°37' W 000°58'3819.4
2019-Mar-24 10:34N 50°01' W 000°42'618.4
2019-Mar-24 10:15N 49°56' W 000°39'618.4
2019-Mar-24 09:55N 49°50' W 000°36'718.2
2019-Mar-24 09:30N 49°43' W 000°32'917.9
2019-Mar-24 09:00N 49°35' W 000°26'918.6
2019-Mar-24 08:30N 49°26' W 000°19'816.6
2019-Mar-24 08:00N 49°19' W 000°15'1 2.4
2019-Mar-24 07:30N 49°17' W 000°15'0 0.0
2019-Mar-24 07:00N 49°17' W 000°15'0 0.0
2019-Mar-24 06:30N 49°17' W 000°15'0 0.0
2019-Mar-24 06:00N 49°17' W 000°15'0 0.3
2019-Mar-24 05:30N 49°17' W 000°15'612.4
2019-Mar-24 05:01N 49°23' W 000°15'814.7
2019-Mar-24 04:28N 49°31' W 000°20'714.8
2019-Mar-24 04:01N 49°37' W 000°24'714.9
2019-Mar-24 03:31N 49°44' W 000°28'5215.0
2019-Mar-24 00:01N 50°33' W 000°55'115.7
2019-Mar-23 23:59N 50°34' W 000°56'715.1
2019-Mar-23 23:30N 50°41' W 000°60'714.1
2019-Mar-23 23:00N 50°47' W 001°06'2 4.3
2019-Mar-23 22:30N 50°49' W 001°06'0 0.0
2019-Mar-23 22:00N 50°49' W 001°06'0 0.0
2019-Mar-23 21:30N 50°49' W 001°06'0 0.9
2019-Mar-23 21:00N 50°49' W 001°07'611.1
2019-Mar-23 20:30N 50°44' W 001°02'815.9
2019-Mar-23 20:00N 50°36' W 000°58'916.9
2019-Mar-23 19:30N 50°28' W 000°53'3217.7
2019-Mar-23 17:39N 49°57' W 000°39'318.6
2019-Mar-23 17:30N 49°54' W 000°37'918.6
2019-Mar-23 17:00N 49°46' W 000°31'1019.9
2019-Mar-23 16:30N 49°37' W 000°25'1019.7
2019-Mar-23 16:00N 49°28' W 000°19'918.7
2019-Mar-23 15:30N 49°19' W 000°15'2 3.2
2019-Mar-23 15:00N 49°17' W 000°15'0 0.0
2019-Mar-23 14:30N 49°17' W 000°15'0 0.0
2019-Mar-23 14:00N 49°17' W 000°15'3 6.7
2019-Mar-23 13:31N 49°21' W 000°14'918.4
2019-Mar-23 13:01N 49°30' W 000°18'1019.0
2019-Mar-23 12:31N 49°39' W 000°23'1019.2
2019-Mar-23 12:00N 49°48' W 000°28'5019.8
2019-Mar-23 09:30N 50°34' W 000°57'918.5
2019-Mar-23 09:00N 50°42' W 001°02'714.0
2019-Mar-23 08:31N 50°48' W 001°07'1 1.4
2019-Mar-23 08:00N 50°49' W 001°06'0 0.0
2019-Mar-23 07:30N 50°49' W 001°06'0 0.0
2019-Mar-23 07:00N 50°49' W 001°06'1 1.2
2019-Mar-23 06:31N 50°49' W 001°07'612.2
2019-Mar-23 06:00N 50°43' W 001°01'714.3
2019-Mar-23 05:30N 50°37' W 000°57'3611.9
2019-Mar-23 02:31N 50°03' W 000°38'011.6
2019-Mar-23 02:30N 50°03' W 000°38'611.8
2019-Mar-23 02:00N 49°57' W 000°36'611.9
2019-Mar-23 01:30N 49°52' W 000°33'611.8
2019-Mar-23 01:00N 49°46' W 000°30'611.3
2019-Mar-23 00:30N 49°41' W 000°26'510.9
2019-Mar-23 00:00N 49°36' W 000°23'510.7
2019-Mar-22 23:30N 49°31' W 000°20'510.6
2019-Mar-22 23:00N 49°26' W 000°18'510.5
2019-Mar-22 22:30N 49°21' W 000°15'4 7.5
2019-Mar-22 22:00N 49°17' W 000°15'0 0.0
2019-Mar-22 21:30N 49°17' W 000°15'0 0.0
2019-Mar-22 21:00N 49°17' W 000°15'0 0.0
2019-Mar-22 20:30N 49°17' W 000°15'3 5.3
2019-Mar-22 20:00N 49°20' W 000°14'1019.7
2019-Mar-22 19:30N 49°30' W 000°17'1020.4
2019-Mar-22 19:00N 49°39' W 000°22'1020.4
2019-Mar-22 18:30N 49°49' W 000°28'4619.4
2019-Mar-22 16:09N 50°31' W 000°55'319.3
2019-Mar-22 15:59N 50°34' W 000°58'919.2
2019-Mar-22 15:30N 50°43' W 001°02'713.1
2019-Mar-22 15:01N 50°49' W 001°06'0 0.6
2019-Mar-22 14:30N 50°49' W 001°06'0 0.0
2019-Mar-22 14:00N 50°49' W 001°06'0 0.0
2019-Mar-22 13:30N 50°49' W 001°06'1 2.6
2019-Mar-22 13:00N 50°48' W 001°07'612.6
2019-Mar-22 12:30N 50°42' W 001°01'5519.2
2019-Mar-22 09:39N 49°51' W 000°33'319.1
2019-Mar-22 09:30N 49°48' W 000°32'918.9
2019-Mar-22 09:00N 49°39' W 000°27'918.6
2019-Mar-22 08:30N 49°30' W 000°22'917.6
2019-Mar-22 08:00N 49°23' W 000°15'510.4
2019-Mar-22 07:30N 49°17' W 000°15'0 0.0
2019-Mar-22 07:00N 49°17' W 000°15'0 0.0
2019-Mar-22 06:30N 49°17' W 000°15'0 0.0
2019-Mar-22 06:00N 49°17' W 000°15'0 0.2
2019-Mar-22 05:31N 49°17' W 000°15'611.8
2019-Mar-22 05:00N 49°23' W 000°14'918.1
2019-Mar-22 04:30N 49°32' W 000°17'918.0
2019-Mar-22 04:00N 49°40' W 000°24'917.1
2019-Mar-22 03:30N 49°48' W 000°29'4915.4
2019-Mar-22 00:19N 50°34' W 000°56'515.5
2019-Mar-22 00:00N 50°38' W 000°59'714.1
2019-Mar-21 23:30N 50°44' W 001°04'4 8.7
2019-Mar-21 23:01N 50°49' W 001°06'0 0.0
2019-Mar-21 22:31N 50°49' W 001°06'0 0.0
2019-Mar-21 22:01N 50°49' W 001°06'0 0.0
2019-Mar-21 21:31N 50°49' W 001°06'2 4.0
2019-Mar-21 21:01N 50°47' W 001°06'816.1
2019-Mar-21 20:30N 50°40' W 000°60'918.9
2019-Mar-21 20:00N 50°31' W 000°55'3418.7
2019-Mar-21 18:12N 49°58' W 000°40'418.9
2019-Mar-21 18:00N 49°55' W 000°38'1019.2
2019-Mar-21 17:30N 49°46' W 000°31'1019.6
2019-Mar-21 17:00N 49°37' W 000°25'1019.7
2019-Mar-21 16:30N 49°28' W 000°19'918.3
2019-Mar-21 16:00N 49°20' W 000°15'2 4.6
2019-Mar-21 15:30N 49°17' W 000°15'0 0.0
2019-Mar-21 15:01N 49°17' W 000°15'0 0.0
2019-Mar-21 14:30N 49°17' W 000°15'0 0.0
2019-Mar-21 14:00N 49°17' W 000°15'4 7.8
2019-Mar-21 13:31N 49°21' W 000°14'918.4
2019-Mar-21 13:00N 49°30' W 000°19'7119.4
2019-Mar-21 09:22N 50°36' W 000°58'617.7
2019-Mar-21 09:01N 50°42' W 001°01'714.4
2019-Mar-21 08:30N 50°48' W 001°07'1 1.7
2019-Mar-21 08:00N 50°49' W 001°06'0 0.0
2019-Mar-21 07:30N 50°49' W 001°06'0 0.0
2019-Mar-21 07:00N 50°49' W 001°06'1 1.2
2019-Mar-21 06:30N 50°49' W 001°07'612.0
2019-Mar-21 06:00N 50°43' W 001°02'714.8
2019-Mar-21 05:30N 50°37' W 000°57'612.0
2019-Mar-21 05:00N 50°31' W 000°53'710.9
2019-Mar-21 04:20N 50°24' W 000°49'3110.9
2019-Mar-21 01:26N 49°54' W 000°33'511.4
2019-Mar-21 00:57N 49°49' W 000°32'511.9
2019-Mar-21 00:30N 49°44' W 000°28'611.9
2019-Mar-21 00:00N 49°39' W 000°25'611.5
2019-Mar-20 23:30N 49°33' W 000°23'611.5
2019-Mar-20 23:00N 49°28' W 000°19'611.2
2019-Mar-20 22:30N 49°23' W 000°15'510.9
2019-Mar-20 22:00N 49°17' W 000°15'0 0.1
2019-Mar-20 21:30N 49°17' W 000°15'0 0.0
2019-Mar-20 21:00N 49°17' W 000°15'0 0.0
2019-Mar-20 20:30N 49°17' W 000°15'0 0.0
2019-Mar-20 20:00N 49°17' W 000°15'0 0.0
2019-Mar-20 19:30N 49°17' W 000°15'0 0.0
2019-Mar-20 19:00N 49°17' W 000°15'0 0.0
2019-Mar-20 18:30N 49°17' W 000°15'0 0.0
2019-Mar-20 18:00N 49°17' W 000°15'0 0.0
2019-Mar-20 17:30N 49°17' W 000°15'0 0.0
2019-Mar-20 16:57N 49°17' W 000°15'0 0.0
2019-Mar-20 16:27N 49°17' W 000°15'0 0.0
2019-Mar-20 16:00N 49°17' W 000°15'0 0.0
2019-Mar-20 15:30N 49°17' W 000°15'0 0.0
2019-Mar-20 15:00N 49°17' W 000°15'0 0.0
2019-Mar-20 14:30N 49°17' W 000°15'0 0.0
2019-Mar-20 14:00N 49°17' W 000°15'4 7.0
2019-Mar-20 13:31N 49°21' W 000°14'918.2
2019-Mar-20 13:01N 49°29' W 000°19'918.5
2019-Mar-20 12:31N 49°38' W 000°24'918.5
2019-Mar-20 12:01N 49°47' W 000°28'5019.1
2019-Mar-20 09:23N 50°34' W 000°56'718.8
2019-Mar-20 09:01N 50°41' W 000°60'816.1
2019-Mar-20 08:30N 50°47' W 001°07'1 2.8
2019-Mar-20 08:00N 50°49' W 001°06'0 0.0
2019-Mar-20 07:31N 50°49' W 001°06'0 0.0
2019-Mar-20 07:00N 50°49' W 001°06'1 1.1
2019-Mar-20 06:31N 50°49' W 001°07'611.6
2019-Mar-20 06:00N 50°44' W 001°02'714.8
2019-Mar-20 05:30N 50°37' W 000°58'611.6
2019-Mar-20 05:00N 50°31' W 000°55'3811.0
2019-Mar-20 01:35N 49°56' W 000°34'111.6
2019-Mar-20 01:29N 49°55' W 000°34'511.6
2019-Mar-20 01:00N 49°49' W 000°31'611.6
2019-Mar-20 00:30N 49°44' W 000°28'612.4
2019-Mar-20 00:00N 49°38' W 000°24'612.2
2019-Mar-19 23:30N 49°33' W 000°20'612.0
2019-Mar-19 23:00N 49°27' W 000°17'611.6
2019-Mar-19 22:30N 49°21' W 000°15'4 8.1
2019-Mar-19 22:01N 49°17' W 000°15'0 0.0
2019-Mar-19 21:30N 49°17' W 000°15'0 0.0
2019-Mar-19 21:01N 49°17' W 000°15'0 0.0
2019-Mar-19 20:31N 49°17' W 000°15'3 7.0
2019-Mar-19 20:00N 49°21' W 000°14'918.9
2019-Mar-19 19:30N 49°30' W 000°17'918.9
2019-Mar-19 19:00N 49°39' W 000°21'1020.0
2019-Mar-19 18:30N 49°48' W 000°29'4719.4
2019-Mar-19 16:06N 50°32' W 000°54'218.7
2019-Mar-19 16:00N 50°33' W 000°55'918.1
2019-Mar-19 15:30N 50°42' W 000°58'815.7
2019-Mar-19 15:01N 50°48' W 001°07'1 2.3
2019-Mar-19 14:30N 50°49' W 001°06'0 0.0
2019-Mar-19 14:00N 50°49' W 001°06'0 0.0
2019-Mar-19 13:30N 50°49' W 001°06'0 0.7
2019-Mar-19 13:00N 50°49' W 001°06'611.0
2019-Mar-19 12:30N 50°44' W 001°03'918.2
2019-Mar-19 12:00N 50°35' W 000°58'2719.7
2019-Mar-19 10:39N 50°10' W 000°44'919.7
2019-Mar-19 10:12N 50°02' W 000°39'419.6
2019-Mar-19 10:00N 49°58' W 000°37'1019.3
2019-Mar-19 09:30N 49°49' W 000°31'1019.1
2019-Mar-19 09:00N 49°40' W 000°25'1019.1
2019-Mar-19 08:30N 49°31' W 000°21'919.0
2019-Mar-19 08:00N 49°23' W 000°15'510.5
2019-Mar-19 07:31N 49°17' W 000°15'0 0.0
2019-Mar-19 07:01N 49°17' W 000°15'0 0.0
2019-Mar-19 06:31N 49°17' W 000°15'0 0.0
2019-Mar-19 06:01N 49°17' W 000°15'0 0.2
2019-Mar-19 05:31N 49°17' W 000°15'714.8
2019-Mar-19 05:00N 49°25' W 000°15'918.0
2019-Mar-19 04:30N 49°33' W 000°17'917.9
2019-Mar-19 04:00N 49°42' W 000°21'816.8
2019-Mar-19 03:30N 49°49' W 000°29'4816.7
2019-Mar-19 00:39N 50°34' W 000°55'317.1
2019-Mar-19 00:28N 50°36' W 000°57'817.2
2019-Mar-19 00:00N 50°43' W 001°02'611.5
2019-Mar-18 23:31N 50°48' W 001°07'1 1.5
2019-Mar-18 23:00N 50°49' W 001°06'0 0.0
2019-Mar-18 22:30N 50°49' W 001°06'0 0.0
2019-Mar-18 22:00N 50°49' W 001°06'1 2.4
2019-Mar-18 21:30N 50°48' W 001°07'713.0
2019-Mar-18 21:00N 50°42' W 001°01'1019.2
2019-Mar-18 20:30N 50°33' W 000°56'4318.8
2019-Mar-18 18:11N 49°53' W 000°30'318.6
2019-Mar-18 18:01N 49°50' W 000°28'918.5
2019-Mar-18 17:31N 49°41' W 000°24'918.4
2019-Mar-18 17:01N 49°32' W 000°19'918.3
2019-Mar-18 16:30N 49°23' W 000°16'612.1
2019-Mar-18 16:00N 49°17' W 000°15'0 0.0
2019-Mar-18 15:30N 49°17' W 000°15'0 0.0
2019-Mar-18 15:00N 49°17' W 000°15'0 0.0
2019-Mar-18 14:30N 49°17' W 000°15'0 0.0
2019-Mar-18 14:00N 49°17' W 000°15'1 1.1
2019-Mar-18 13:30N 49°18' W 000°15'816.5
2019-Mar-18 13:00N 49°26' W 000°15'918.7
2019-Mar-18 12:30N 49°35' W 000°19'918.7
2019-Mar-18 12:00N 49°44' W 000°24'918.6
2019-Mar-18 11:30N 49°53' W 000°30'4518.7
2019-Mar-18 09:07N 50°34' W 000°57'319.5
2019-Mar-18 08:57N 50°37' W 000°59'818.5
2019-Mar-18 08:30N 50°44' W 001°04'5 9.2
2019-Mar-18 08:00N 50°49' W 001°06'0 0.0
2019-Mar-18 07:30N 50°49' W 001°06'0 0.0
2019-Mar-18 07:00N 50°49' W 001°06'0 0.6
2019-Mar-18 06:30N 50°49' W 001°06'510.1
2019-Mar-18 06:00N 50°44' W 001°04'917.9
2019-Mar-18 05:30N 50°36' W 000°58'6613.3
2019-Mar-18 00:33N 49°31' W 000°44'110.8
2019-Mar-18 00:30N 49°30' W 000°43'510.9
2019-Mar-18 00:00N 49°28' W 000°36'511.0
2019-Mar-17 23:30N 49°26' W 000°28'611.1
2019-Mar-17 23:00N 49°23' W 000°21'510.2
2019-Mar-17 22:30N 49°20' W 000°14'3 5.3
2019-Mar-17 22:00N 49°17' W 000°15'0 0.0
2019-Mar-17 21:30N 49°17' W 000°15'0 0.0
2019-Mar-17 21:00N 49°17' W 000°15'0 0.0
2019-Mar-17 20:30N 49°17' W 000°15'3 5.4
2019-Mar-17 20:01N 49°20' W 000°14'918.7
2019-Mar-17 19:31N 49°29' W 000°16'1019.1
2019-Mar-17 19:00N 49°39' W 000°20'1019.3
2019-Mar-17 18:30N 49°48' W 000°24'1019.6
2019-Mar-17 18:00N 49°57' W 000°28'3519.6
2019-Mar-17 16:12N 50°29' W 000°52'419.7
2019-Mar-17 15:59N 50°33' W 000°56'918.6
2019-Mar-17 15:30N 50°42' W 000°59'816.1
2019-Mar-17 15:00N 50°48' W 001°07'1 2.0
2019-Mar-17 14:30N 50°49' W 001°06'0 0.0
2019-Mar-17 14:01N 50°49' W 001°06'0 0.0
2019-Mar-17 13:30N 50°49' W 001°06'1 2.7
2019-Mar-17 13:00N 50°47' W 001°07'713.5
2019-Mar-17 12:30N 50°43' W 000°59'918.2
2019-Mar-17 12:00N 50°34' W 000°56'3919.2
2019-Mar-17 09:59N 49°58' W 000°34'919.2
2019-Mar-17 09:30N 49°49' W 000°29'1019.4
2019-Mar-17 09:01N 49°40' W 000°24'1019.5
2019-Mar-17 08:30N 49°31' W 000°19'1019.3
2019-Mar-17 08:01N 49°22' W 000°15'4 8.4
2019-Mar-17 07:30N 49°17' W 000°15'0 0.0
2019-Mar-17 07:00N 49°17' W 000°15'0 0.0
2019-Mar-17 06:30N 49°17' W 000°15'0 0.0
2019-Mar-17 06:00N 49°17' W 000°15'0 0.2
2019-Mar-17 05:30N 49°17' W 000°15'816.5
2019-Mar-17 05:00N 49°25' W 000°17'918.1
2019-Mar-17 04:31N 49°33' W 000°24'917.6
2019-Mar-17 04:00N 49°41' W 000°29'5518.3
2019-Mar-17 01:00N 50°31' W 001°08'713.9
2019-Mar-17 00:30N 50°37' W 001°05'713.7
2019-Mar-17 00:00N 50°43' W 000°60'713.5
2019-Mar-16 23:30N 50°48' W 001°07'1 1.9
2019-Mar-16 23:00N 50°49' W 001°06'0 0.0
2019-Mar-16 22:30N 50°49' W 001°06'0 0.0
2019-Mar-16 22:00N 50°49' W 001°06'2 4.2
2019-Mar-16 21:30N 50°47' W 001°06'815.5
2019-Mar-16 21:01N 50°40' W 000°59'5218.7
2019-Mar-16 18:13N 49°48' W 000°47'418.6
2019-Mar-16 18:00N 49°45' W 000°44'918.6
2019-Mar-16 17:31N 49°38' W 000°35'918.7
2019-Mar-16 17:00N 49°31' W 000°26'918.8
2019-Mar-16 16:30N 49°23' W 000°17'611.6
2019-Mar-16 16:00N 49°17' W 000°15'0 0.0
2019-Mar-16 15:30N 49°17' W 000°15'0 0.0
2019-Mar-16 15:00N 49°17' W 000°15'0 0.0
2019-Mar-16 14:30N 49°17' W 000°15'4 7.6
2019-Mar-16 14:00N 49°21' W 000°14'1019.6
2019-Mar-16 13:31N 49°30' W 000°19'1019.5
2019-Mar-16 13:01N 49°39' W 000°25'1019.2
2019-Mar-16 12:31N 49°48' W 000°30'1018.9
2019-Mar-16 12:00N 49°57' W 000°35'4118.6
2019-Mar-16 09:50N 50°32' W 001°09'515.4
2019-Mar-16 09:30N 50°36' W 001°07'815.1
2019-Mar-16 09:01N 50°44' W 001°03'511.0
2019-Mar-16 08:30N 50°49' W 001°06'0 0.8
2019-Mar-16 08:00N 50°49' W 001°06'0 0.0
2019-Mar-16 07:30N 50°49' W 001°06'0 0.0
2019-Mar-16 07:00N 50°49' W 001°06'0 0.2
2019-Mar-16 06:31N 50°49' W 001°06'4 8.2
2019-Mar-16 06:00N 50°45' W 001°05'816.9
2019-Mar-16 05:30N 50°37' W 000°59'6415.8
2019-Mar-16 01:27N 49°33' W 000°48'814.7
2019-Mar-16 00:56N 49°29' W 000°38'512.8
2019-Mar-16 00:30N 49°27' W 000°31'  

Dump ship's entire track history